createdAt,value
2023-03-23T19:06:18.651Z,98816.91
2023-03-23T19:08:52.317Z,98819.75
2023-03-23T19:17:22.884Z,98823.78
2023-03-23T19:20:07.075Z,98819.19
2023-03-23T19:22:47.762Z,98820.56
2023-03-23T19:25:20.958Z,98822.63
2023-03-23T19:30:32.708Z,98830.41
2023-03-23T19:33:06.359Z,98824.22
2023-03-23T19:35:37.473Z,98831.59
2023-03-23T19:38:12.978Z,98846.50
2023-03-23T19:41:14.162Z,98840.69
2023-03-23T19:43:47.718Z,98843.91
2023-03-23T19:51:45.129Z,98852.06
2023-03-23T19:54:16.103Z,98854.94
2023-03-23T19:57:05.683Z,98863.53
2023-03-23T20:02:29.739Z,98865.47
2023-03-23T20:04:58.051Z,98871.22
2023-03-23T20:07:27.045Z,98866.50
2023-03-23T20:09:56.675Z,98870.84
2023-03-23T20:12:27.934Z,98873.16
2023-03-23T20:15:00.006Z,98879.81
2023-03-23T20:17:38.676Z,98879.69
2023-03-23T20:22:57.810Z,98879.97
2023-03-23T20:34:02.445Z,98897.47
2023-03-23T20:36:57.902Z,98891.91
2023-03-23T20:50:12.880Z,98921.34
2023-03-23T20:52:45.104Z,98926.31
2023-03-23T20:55:15.542Z,98920.13
2023-03-23T20:57:44.614Z,98948.81
2023-03-23T21:00:19.018Z,98932.16
2023-03-23T21:02:49.940Z,98948.25
2023-03-23T21:05:20.947Z,98937.16
2023-03-23T21:13:21.065Z,98944.28
2023-03-23T21:15:51.979Z,98956.66
2023-03-23T21:18:22.432Z,98953.97
2023-03-23T21:20:54.681Z,98973.22
2023-03-23T21:23:27.088Z,98987.47
2023-03-23T21:26:00.873Z,98969.34
2023-03-23T21:28:30.688Z,98990.69
2023-03-23T21:31:02.545Z,98998.47
2023-03-23T21:33:31.613Z,98976.66
2023-03-23T21:36:01.867Z,98975.34
2023-03-23T21:38:31.672Z,98990.81
2023-03-23T21:41:01.480Z,98998.84
2023-03-23T21:43:31.253Z,98995.16
2023-03-23T21:46:03.201Z,99007.06
2023-03-23T21:48:33.111Z,99011.78
2023-03-23T21:51:09.573Z,99000.22
2023-03-23T21:53:39.958Z,99021.69
2023-03-23T21:56:10.956Z,99029.06
2023-03-23T21:58:39.906Z,99027.75
2023-03-23T22:01:08.679Z,99021.41
2023-03-23T22:03:42.987Z,99015.31
2023-03-23T22:06:19.049Z,99012.06
2023-03-23T22:08:48.189Z,99017.03
2023-03-23T22:11:21.281Z,99008.00
2023-03-23T22:13:52.471Z,99029.44
2023-03-23T22:16:22.717Z,99028.16
2023-03-23T22:19:02.904Z,99044.97
2023-03-23T22:21:35.364Z,99041.63
2023-03-23T22:24:05.514Z,99044.69
2023-03-23T22:26:36.312Z,99040.50
2023-03-23T22:29:10.974Z,99038.47
2023-03-23T22:31:42.242Z,99045.31
2023-03-23T22:34:12.230Z,99047.47
2023-03-23T22:36:43.053Z,99053.66
2023-03-23T22:39:13.077Z,99061.50
2023-03-23T22:41:49.384Z,99052.34
2023-03-23T22:44:20.094Z,99044.38
2023-03-23T22:46:48.651Z,99053.81
2023-03-23T22:49:17.335Z,99049.13
2023-03-23T22:51:54.743Z,99055.72
2023-03-23T22:54:24.202Z,99066.44
2023-03-23T22:56:56.394Z,99072.31
2023-03-23T22:59:44.944Z,99054.59
2023-03-23T23:11:12.726Z,99075.25
2023-03-23T23:13:51.043Z,99083.81
2023-03-23T23:19:07.826Z,99089.72
2023-03-23T23:47:21.742Z,99108.97
